createdAt,value
2019-03-13T00:01:00.177Z,8.10
2019-03-13T00:03:40.039Z,8.00
2019-03-13T00:06:20.090Z,8.00
2019-03-13T00:09:00.076Z,8.00
2019-03-13T00:11:40.497Z,8.00
2019-03-13T00:14:20.587Z,8.00
2019-03-13T00:17:01.551Z,8.10
2019-03-13T00:19:42.783Z,8.10
2019-03-13T00:22:23.025Z,8.00
2019-03-13T00:25:02.957Z,8.10
2019-03-13T00:27:42.956Z,8.10
2019-03-13T00:30:22.906Z,8.10
2019-03-13T00:33:02.908Z,8.10
2019-03-13T00:35:42.686Z,8.20
2019-03-13T00:38:22.535Z,8.20
2019-03-13T00:41:02.514Z,8.30
2019-03-13T00:43:42.334Z,8.30
2019-03-13T00:46:22.767Z,8.30
2019-03-13T00:49:02.716Z,8.30
2019-03-13T00:51:42.584Z,8.40
2019-03-13T00:54:23.307Z,8.40
2019-03-13T00:57:02.980Z,8.40
2019-03-13T00:59:43.029Z,8.30
2019-03-13T01:02:33.085Z,8.40
2019-03-13T01:05:16.834Z,8.40
2019-03-13T01:07:56.617Z,8.40
2019-03-13T01:10:36.900Z,8.40
2019-03-13T01:13:16.980Z,8.50
2019-03-13T01:15:56.921Z,8.50
2019-03-13T01:18:36.724Z,8.50
2019-03-13T01:21:16.760Z,8.50
2019-03-13T01:23:56.436Z,8.60
2019-03-13T01:26:36.273Z,8.50
2019-03-13T01:29:16.460Z,8.50
2019-03-13T01:32:26.001Z,8.50
2019-03-13T01:35:22.134Z,8.50
2019-03-13T01:38:02.258Z,8.50
2019-03-13T01:40:42.268Z,8.50
2019-03-13T01:43:22.301Z,8.60
2019-03-13T01:46:02.104Z,8.60
2019-03-13T01:48:42.309Z,8.60
2019-03-13T01:51:21.949Z,8.70
2019-03-13T01:54:02.003Z,8.60
2019-03-13T01:56:41.711Z,8.70
2019-03-13T01:59:21.637Z,8.80
2019-03-13T02:02:04.940Z,8.80
2019-03-13T02:04:45.006Z,8.90
2019-03-13T02:07:24.788Z,8.80
2019-03-13T02:10:06.117Z,8.90
2019-03-13T02:12:46.083Z,8.80
2019-03-13T02:15:25.857Z,8.80
2019-03-13T02:18:05.886Z,8.80
2019-03-13T02:20:45.981Z,8.70
2019-03-13T02:23:25.825Z,8.70
2019-03-13T02:26:05.617Z,8.60
2019-03-13T02:28:45.516Z,8.50
2019-03-13T02:31:26.206Z,8.30
2019-03-13T02:34:05.973Z,8.20
2019-03-13T02:36:45.750Z,8.00
2019-03-13T02:39:25.677Z,7.80
2019-03-13T02:42:05.617Z,7.70
2019-03-13T02:44:45.395Z,7.60
2019-03-13T02:47:25.246Z,7.50
2019-03-13T02:50:05.709Z,7.50
2019-03-13T02:52:45.863Z,7.40
2019-03-13T02:55:25.657Z,7.30
2019-03-13T02:58:05.656Z,7.30
2019-03-13T03:01:08.193Z,7.30
2019-03-13T03:03:51.491Z,7.40
2019-03-13T03:06:33.664Z,7.40
2019-03-13T03:09:13.477Z,7.40
2019-03-13T03:11:53.360Z,7.50
2019-03-13T03:14:33.551Z,7.40
2019-03-13T03:17:13.419Z,7.50
2019-03-13T03:19:54.550Z,7.70
2019-03-13T03:22:34.344Z,7.70
2019-03-13T03:25:17.113Z,7.70
2019-03-13T03:27:57.140Z,7.70
2019-03-13T03:30:39.613Z,7.80
2019-03-13T03:33:22.581Z,7.70
2019-03-13T03:36:02.609Z,7.70
2019-03-13T03:38:42.752Z,7.80
2019-03-13T03:41:22.703Z,7.80
2019-03-13T03:44:02.504Z,7.80
2019-03-13T03:46:43.351Z,7.80
2019-03-13T03:49:24.406Z,7.80
2019-03-13T03:52:04.392Z,7.80
2019-03-13T03:54:44.058Z,7.80
2019-03-13T03:57:23.994Z,7.70
2019-03-13T04:00:06.192Z,7.70
2019-03-13T04:02:45.989Z,7.70
2019-03-13T04:05:26.030Z,7.70
2019-03-13T04:08:05.728Z,7.80
2019-03-13T04:10:45.468Z,7.80
2019-03-13T04:13:25.465Z,7.90
2019-03-13T04:16:05.212Z,7.90
2019-03-13T04:18:45.644Z,7.80
2019-03-13T04:21:25.681Z,7.60
2019-03-13T04:24:05.731Z,7.50
2019-03-13T04:26:47.155Z,7.40
2019-03-13T04:29:27.064Z,7.30
2019-03-13T04:32:06.889Z,7.30
2019-03-13T04:34:46.903Z,7.30
2019-03-13T04:37:26.553Z,7.30
2019-03-13T04:40:06.816Z,7.20
2019-03-13T04:42:46.523Z,7.00
2019-03-13T04:45:26.217Z,6.90
2019-03-13T04:48:06.099Z,6.80
2019-03-13T04:50:45.960Z,6.70
2019-03-13T04:53:25.653Z,6.70
2019-03-13T04:56:06.451Z,6.60
2019-03-13T04:58:46.384Z,6.50
2019-03-13T05:01:26.786Z,6.40
2019-03-13T05:04:06.811Z,6.30
2019-03-13T05:06:46.782Z,6.20
2019-03-13T05:09:38.741Z,6.10
2019-03-13T05:12:18.567Z,6.00
2019-03-13T05:14:58.343Z,6.00
2019-03-13T05:17:38.998Z,6.00
2019-03-13T05:20:19.054Z,5.80
2019-03-13T05:22:59.179Z,5.80
2019-03-13T05:25:38.987Z,5.70
2019-03-13T05:28:19.188Z,5.60
2019-03-13T05:30:59.118Z,5.60
2019-03-13T05:33:39.433Z,5.60
2019-03-13T05:36:19.265Z,5.50
2019-03-13T05:38:59.687Z,5.50
2019-03-13T05:41:39.695Z,5.40
2019-03-13T05:44:19.922Z,5.40
2019-03-13T05:47:02.530Z,5.30
2019-03-13T05:49:42.551Z,5.30
2019-03-13T05:52:24.105Z,5.30
2019-03-13T05:55:03.875Z,5.30
2019-03-13T05:57:45.161Z,5.40
2019-03-13T06:00:26.334Z,5.50
2019-03-13T06:03:06.455Z,5.50
2019-03-13T06:05:46.334Z,5.70
2019-03-13T06:08:26.204Z,5.70
2019-03-13T06:11:06.336Z,5.70
2019-03-13T06:13:47.478Z,5.70
2019-03-13T06:16:27.820Z,5.70
2019-03-13T06:19:07.670Z,5.90
2019-03-13T06:21:47.687Z,6.10
2019-03-13T06:24:29.223Z,6.30
2019-03-13T06:27:09.126Z,6.30
2019-03-13T06:29:48.817Z,6.10
2019-03-13T06:32:28.841Z,6.10
2019-03-13T06:35:09.440Z,6.30
2019-03-13T06:37:49.826Z,6.50
2019-03-13T06:40:29.941Z,6.80
2019-03-13T06:43:09.769Z,7.50
2019-03-13T06:45:49.715Z,8.20
2019-03-13T06:48:30.002Z,8.90
2019-03-13T06:51:09.974Z,9.20
2019-03-13T06:53:49.795Z,9.80
2019-03-13T06:56:29.567Z,10.10
2019-03-13T06:59:15.161Z,10.40
2019-03-13T07:02:13.737Z,11.10
2019-03-13T07:05:04.660Z,11.30
2019-03-13T07:08:02.004Z,11.40
2019-03-13T07:11:00.989Z,11.40
2019-03-13T07:13:53.128Z,11.80
2019-03-13T07:16:44.413Z,12.60
2019-03-13T07:19:41.073Z,12.90
2019-03-13T07:22:30.446Z,12.80
2019-03-13T07:25:38.640Z,12.60
2019-03-13T07:28:40.636Z,12.30
2019-03-13T07:31:38.901Z,11.90
2019-03-13T07:34:46.607Z,12.10
2019-03-13T07:37:37.072Z,12.50
2019-03-13T07:40:30.066Z,12.90
2019-03-13T07:43:25.186Z,13.20
2019-03-13T07:46:12.873Z,13.40
2019-03-13T07:49:11.151Z,13.50
2019-03-13T07:52:08.592Z,13.50
2019-03-13T07:54:59.894Z,14.10
2019-03-13T07:58:04.707Z,14.50
2019-03-13T08:00:51.494Z,15.10
2019-03-13T08:03:44.453Z,15.30
2019-03-13T08:06:41.683Z,15.60
2019-03-13T08:09:46.089Z,16.40
2019-03-13T08:12:48.694Z,17.10
2019-03-13T08:15:42.182Z,16.50
2019-03-13T08:18:44.724Z,16.30
2019-03-13T08:21:46.283Z,17.00
2019-03-13T08:24:42.681Z,16.50
2019-03-13T08:27:51.726Z,15.90
2019-03-13T08:30:48.946Z,15.50
2019-03-13T08:33:47.762Z,16.20
2019-03-13T08:36:52.412Z,16.50
2019-03-13T08:39:51.260Z,15.90
2019-03-13T08:42:48.703Z,16.20
2019-03-13T08:45:47.862Z,16.10
2019-03-13T08:48:37.919Z,16.40
2019-03-13T08:51:39.421Z,16.40
2019-03-13T08:54:38.856Z,16.90
2019-03-13T08:57:30.019Z,16.60
2019-03-13T09:00:37.155Z,15.70
2019-03-13T09:03:32.426Z,13.90
2019-03-13T09:06:27.971Z,12.80
2019-03-13T09:09:26.216Z,12.20
2019-03-13T09:12:15.175Z,13.40
2019-03-13T09:15:13.886Z,14.40
2019-03-13T09:18:10.633Z,14.50
2019-03-13T09:21:14.161Z,14.90
2019-03-13T09:24:01.778Z,16.50
2019-03-13T09:26:54.713Z,16.40
2019-03-13T09:29:59.344Z,15.50
2019-03-13T09:32:49.952Z,13.60
2019-03-13T09:35:51.827Z,12.40
2019-03-13T09:38:45.584Z,13.90
2019-03-13T09:41:43.436Z,14.30
2019-03-13T09:44:34.241Z,13.00
2019-03-13T09:47:20.543Z,12.30
2019-03-13T09:50:14.275Z,11.90
2019-03-13T09:53:16.145Z,11.40
2019-03-13T09:56:16.463Z,11.50
2019-03-13T09:59:06.759Z,11.20
2019-03-13T10:02:04.880Z,11.20
2019-03-13T10:05:10.075Z,11.10
2019-03-13T10:07:58.989Z,11.10
2019-03-13T10:10:56.648Z,10.80
2019-03-13T10:14:02.042Z,10.60
2019-03-13T10:17:10.747Z,10.80
2019-03-13T10:20:05.466Z,11.50
2019-03-13T10:23:02.362Z,11.40
2019-03-13T10:26:01.647Z,11.70
2019-03-13T10:28:52.495Z,13.20
2019-03-13T10:31:46.533Z,15.40
2019-03-13T10:34:35.091Z,17.60
2019-03-13T10:37:37.476Z,18.50
2019-03-13T10:40:42.403Z,18.30
2019-03-13T10:43:32.405Z,16.70
2019-03-13T10:46:46.901Z,16.90
2019-03-13T10:49:31.968Z,15.30
2019-03-13T10:52:20.644Z,15.60
2019-03-13T10:55:09.580Z,15.10
2019-03-13T10:58:08.112Z,14.40
2019-03-13T11:00:57.620Z,16.00
2019-03-13T11:03:59.382Z,16.10
2019-03-13T11:06:57.849Z,15.90
2019-03-13T11:09:53.016Z,14.70
2019-03-13T11:12:54.401Z,13.30
2019-03-13T11:15:51.737Z,12.30
2019-03-13T11:18:50.323Z,12.50
2019-03-13T11:21:48.849Z,12.90
2019-03-13T11:24:50.814Z,12.40
2019-03-13T11:27:45.543Z,11.90
2019-03-13T11:30:43.280Z,11.30
2019-03-13T11:33:30.449Z,11.10
2019-03-13T11:36:19.650Z,10.90
2019-03-13T11:39:15.897Z,10.90
2019-03-13T11:42:23.952Z,11.20
2019-03-13T11:45:41.069Z,11.30
2019-03-13T11:48:42.858Z,11.30
2019-03-13T11:51:41.669Z,11.60
2019-03-13T11:54:40.406Z,14.10
2019-03-13T11:57:42.701Z,16.20
2019-03-13T12:00:47.413Z,18.20
2019-03-13T12:03:38.623Z,17.50
2019-03-13T12:06:44.396Z,18.20
2019-03-13T12:09:29.975Z,17.20
2019-03-13T12:12:40.717Z,15.50
2019-03-13T12:15:29.655Z,14.00
2019-03-13T12:18:28.373Z,13.10
2019-03-13T12:21:26.708Z,12.50
2019-03-13T12:24:23.916Z,11.70
2019-03-13T12:27:40.139Z,11.00
2019-03-13T12:30:34.615Z,10.60
2019-03-13T12:33:45.570Z,10.30
2019-03-13T12:36:47.147Z,10.60
2019-03-13T12:39:49.079Z,10.80
2019-03-13T12:42:38.684Z,12.00
2019-03-13T12:45:26.676Z,15.10
2019-03-13T12:48:17.284Z,16.80
2019-03-13T12:51:11.202Z,18.50
2019-03-13T12:54:01.005Z,18.60
2019-03-13T12:56:49.873Z,17.30
2019-03-13T12:59:39.351Z,18.30
2019-03-13T13:02:27.576Z,18.80
2019-03-13T13:05:14.782Z,18.90
2019-03-13T13:08:12.243Z,18.80
2019-03-13T13:11:02.951Z,17.90
2019-03-13T13:14:05.837Z,17.90
2019-03-13T13:17:10.856Z,18.60
2019-03-13T13:19:50.590Z,20.10
2019-03-13T13:22:32.498Z,19.70
2019-03-13T13:25:18.664Z,20.00
2019-03-13T13:27:58.255Z,20.70
2019-03-13T13:30:39.417Z,21.10
2019-03-13T13:33:19.005Z,21.00
2019-03-13T13:36:01.823Z,20.90
2019-03-13T13:38:43.477Z,22.10
2019-03-13T13:41:23.340Z,22.80
2019-03-13T13:44:02.860Z,22.50
2019-03-13T13:46:44.546Z,21.40
2019-03-13T13:49:24.381Z,18.20
2019-03-13T13:52:04.131Z,16.00
2019-03-13T13:54:44.771Z,15.20
2019-03-13T13:57:24.413Z,14.90
2019-03-13T14:00:04.271Z,13.80
2019-03-13T14:02:45.680Z,13.70
2019-03-13T14:05:30.961Z,14.40
2019-03-13T14:08:10.551Z,15.00
2019-03-13T14:10:50.339Z,15.30
2019-03-13T14:13:29.976Z,17.00
2019-03-13T14:16:09.646Z,18.40
2019-03-13T14:18:49.576Z,19.10
2019-03-13T14:21:29.269Z,17.40
2019-03-13T14:24:08.799Z,15.90
2019-03-13T14:26:49.458Z,14.60
2019-03-13T14:29:29.090Z,14.20
2019-03-13T14:32:08.856Z,13.80
2019-03-13T14:34:48.675Z,13.50
2019-03-13T14:37:28.298Z,13.50
2019-03-13T14:40:09.604Z,13.20
2019-03-13T14:42:50.466Z,12.80
2019-03-13T14:45:30.168Z,12.30
2019-03-13T14:48:09.952Z,11.80
2019-03-13T14:50:49.853Z,11.60
2019-03-13T14:53:29.385Z,11.60
2019-03-13T14:56:08.984Z,11.50
2019-03-13T14:58:48.903Z,11.30
2019-03-13T15:01:28.797Z,11.00
2019-03-13T15:04:08.626Z,11.00
2019-03-13T15:06:49.551Z,10.90
2019-03-13T15:09:29.430Z,10.80
2019-03-13T15:12:09.196Z,10.80
2019-03-13T15:14:49.246Z,10.90
2019-03-13T15:17:29.317Z,10.90
2019-03-13T15:20:13.663Z,10.90
2019-03-13T15:22:54.002Z,11.00
2019-03-13T15:25:34.208Z,11.00
2019-03-13T15:28:17.348Z,11.00
2019-03-13T15:30:56.051Z,10.90
2019-03-13T15:33:35.931Z,10.80
2019-03-13T15:36:16.204Z,10.70
2019-03-13T15:38:55.937Z,10.70
2019-03-13T15:41:35.878Z,10.50
2019-03-13T15:44:15.945Z,10.40
2019-03-13T15:46:56.520Z,10.30
2019-03-13T15:49:36.473Z,10.20
2019-03-13T15:52:16.452Z,10.20
2019-03-13T15:54:56.438Z,10.20
2019-03-13T15:57:40.012Z,10.20
2019-03-13T16:00:23.873Z,10.20
2019-03-13T16:03:03.639Z,10.20
2019-03-13T16:05:46.310Z,10.10
2019-03-13T16:08:26.372Z,9.90
2019-03-13T16:11:09.458Z,9.90
2019-03-13T16:13:49.605Z,9.80
2019-03-13T16:16:29.577Z,9.80
2019-03-13T16:19:13.111Z,9.80
2019-03-13T16:21:53.529Z,9.80
2019-03-13T16:24:33.424Z,9.20
2019-03-13T16:27:14.507Z,9.80
2019-03-13T16:29:58.846Z,9.80
2019-03-13T16:32:43.757Z,9.70
2019-03-13T16:35:26.319Z,9.70
2019-03-13T16:38:05.366Z,9.70
2019-03-13T16:40:45.358Z,9.60
2019-03-13T16:43:26.570Z,9.60
2019-03-13T16:46:07.899Z,9.60
2019-03-13T16:48:47.614Z,9.60
2019-03-13T16:51:27.654Z,9.50
2019-03-13T16:54:08.319Z,9.50
2019-03-13T16:56:48.359Z,9.50
2019-03-13T16:59:30.742Z,9.50
2019-03-13T17:02:12.980Z,9.50
2019-03-13T17:04:53.109Z,9.50
2019-03-13T17:07:32.835Z,7.80
2019-03-13T17:10:15.172Z,9.40
2019-03-13T17:12:55.108Z,9.30
2019-03-13T17:15:35.278Z,9.30
2019-03-13T17:18:15.854Z,9.30
2019-03-13T17:20:56.206Z,9.30
2019-03-13T17:23:36.291Z,9.30
2019-03-13T17:26:16.311Z,9.30
2019-03-13T17:28:56.034Z,9.30
2019-03-13T17:31:38.935Z,9.30
2019-03-13T17:34:19.154Z,9.20
2019-03-13T17:36:58.836Z,9.20
2019-03-13T17:39:38.758Z,9.20
2019-03-13T17:42:18.756Z,9.20
2019-03-13T17:45:00.781Z,9.10
2019-03-13T17:47:42.062Z,9.10
2019-03-13T17:50:22.773Z,9.10
2019-03-13T17:53:03.603Z,9.20
2019-03-13T17:55:43.638Z,9.10
2019-03-13T17:58:24.000Z,9.00
2019-03-13T18:01:04.465Z,9.00
2019-03-13T18:03:44.132Z,8.90
2019-03-13T18:06:24.416Z,8.80
2019-03-13T18:09:04.824Z,8.70
2019-03-13T18:11:46.412Z,8.70
2019-03-13T18:14:32.064Z,8.70
2019-03-13T18:17:10.472Z,8.60
2019-03-13T18:19:50.364Z,8.60
2019-03-13T18:22:31.162Z,8.60
2019-03-13T18:25:17.868Z,8.60
2019-03-13T18:27:56.723Z,8.50
2019-03-13T18:30:36.851Z,8.50
2019-03-13T18:33:18.483Z,8.50
2019-03-13T18:35:58.518Z,8.40
2019-03-13T18:38:38.717Z,8.40
2019-03-13T18:41:18.481Z,8.40
2019-03-13T18:43:58.680Z,8.40
2019-03-13T18:46:38.587Z,8.40
2019-03-13T18:49:18.426Z,8.30
2019-03-13T18:51:58.222Z,8.40
2019-03-13T18:54:38.013Z,8.40
2019-03-13T18:57:18.009Z,8.40
2019-03-13T18:59:57.911Z,8.50
2019-03-13T19:02:37.601Z,8.50
2019-03-13T19:05:18.527Z,8.40
2019-03-13T19:08:00.599Z,8.40
2019-03-13T19:10:40.823Z,8.30
2019-03-13T19:13:20.579Z,8.30
2019-03-13T19:16:01.786Z,8.30
2019-03-13T19:18:41.626Z,8.30
2019-03-13T19:21:21.816Z,8.30
2019-03-13T19:24:02.706Z,8.30
2019-03-13T19:26:43.252Z,8.30
2019-03-13T19:29:23.307Z,8.20
2019-03-13T19:32:03.648Z,8.20
2019-03-13T19:34:43.594Z,8.20
2019-03-13T19:37:27.908Z,8.10
2019-03-13T19:40:11.116Z,8.10
2019-03-13T19:42:50.871Z,8.10
2019-03-13T19:45:37.801Z,8.10
2019-03-13T19:48:17.544Z,8.10
2019-03-13T19:51:00.800Z,8.00
2019-03-13T19:53:42.026Z,8.00
2019-03-13T19:56:22.076Z,8.00
2019-03-13T19:59:04.046Z,8.00
2019-03-13T20:01:43.884Z,7.90
2019-03-13T20:04:23.656Z,7.90
2019-03-13T20:07:03.489Z,8.00
2019-03-13T20:09:43.620Z,7.90
2019-03-13T20:12:23.958Z,7.90
2019-03-13T20:15:04.224Z,8.00
2019-03-13T20:17:44.045Z,7.90
2019-03-13T20:20:24.034Z,8.00
2019-03-13T20:23:04.086Z,8.00
2019-03-13T20:25:44.013Z,8.00
2019-03-13T20:28:26.360Z,8.00
2019-03-13T20:31:06.761Z,7.80
2019-03-13T20:33:46.876Z,7.70
2019-03-13T20:36:26.689Z,7.50
2019-03-13T20:39:08.068Z,7.40
2019-03-13T20:41:54.274Z,7.30
2019-03-13T20:44:34.794Z,7.30
2019-03-13T20:47:14.706Z,7.30
2019-03-13T20:49:54.703Z,7.40
2019-03-13T20:52:34.754Z,7.40
2019-03-13T20:55:14.867Z,7.40
2019-03-13T20:57:54.815Z,7.40
2019-03-13T21:00:35.171Z,7.40
2019-03-13T21:03:15.373Z,7.40
2019-03-13T21:05:55.221Z,7.30
2019-03-13T21:08:35.259Z,7.30
2019-03-13T21:11:16.055Z,7.30
2019-03-13T21:13:56.283Z,7.30
2019-03-13T21:16:37.347Z,7.40
2019-03-13T21:19:17.335Z,7.40
2019-03-13T21:21:57.454Z,7.30
2019-03-13T21:24:37.313Z,7.40
2019-03-13T21:27:17.561Z,7.40
2019-03-13T21:29:58.136Z,7.40
2019-03-13T21:32:38.174Z,7.40
2019-03-13T21:35:18.247Z,7.30
2019-03-13T21:38:01.718Z,7.40
2019-03-13T21:40:42.011Z,7.30
2019-03-13T21:43:21.858Z,7.40
2019-03-13T21:46:02.657Z,7.40
2019-03-13T21:48:45.738Z,7.40
2019-03-13T21:51:25.752Z,7.40
2019-03-13T21:54:05.740Z,6.00
2019-03-13T21:57:06.080Z,7.40
2019-03-13T21:59:46.302Z,7.40
2019-03-13T22:02:32.574Z,7.30
2019-03-13T22:05:08.046Z,7.30
2019-03-13T22:07:48.158Z,7.30
2019-03-13T22:10:28.382Z,7.20
2019-03-13T22:13:08.188Z,7.10
2019-03-13T22:15:48.773Z,7.10
2019-03-13T22:18:28.981Z,7.20
2019-03-13T22:21:10.266Z,7.20
2019-03-13T22:23:51.892Z,7.30
2019-03-13T22:26:31.598Z,7.30
2019-03-13T22:29:11.623Z,7.30
2019-03-13T22:31:52.002Z,7.20
2019-03-13T22:34:33.235Z,7.30
2019-03-13T22:37:13.586Z,7.30
2019-03-13T22:39:53.452Z,7.40
2019-03-13T22:42:33.389Z,7.40
2019-03-13T22:45:14.230Z,7.40
2019-03-13T22:47:55.330Z,7.50
2019-03-13T22:50:35.305Z,7.40
2019-03-13T22:53:15.276Z,7.40
2019-03-13T22:55:55.591Z,7.40
2019-03-13T22:58:36.192Z,7.30
2019-03-13T23:01:17.995Z,7.20
2019-03-13T23:03:59.866Z,7.20
2019-03-13T23:06:39.814Z,7.20
2019-03-13T23:09:21.700Z,7.10
2019-03-13T23:12:05.203Z,7.10
2019-03-13T23:14:45.734Z,7.10
2019-03-13T23:17:25.558Z,7.10
2019-03-13T23:20:05.603Z,7.10
2019-03-13T23:22:46.837Z,7.10
2019-03-13T23:25:26.912Z,7.00
2019-03-13T23:28:07.063Z,7.00
2019-03-13T23:30:47.011Z,7.00
2019-03-13T23:33:29.163Z,7.00
2019-03-13T23:36:09.253Z,6.90
2019-03-13T23:38:49.141Z,6.90
2019-03-13T23:41:31.002Z,6.90
2019-03-13T23:44:11.116Z,6.90
2019-03-13T23:46:51.126Z,6.80
2019-03-13T23:49:31.253Z,6.90
2019-03-13T23:52:11.199Z,7.00
2019-03-13T23:54:54.891Z,7.00
2019-03-13T23:57:35.222Z,7.00
